• Join FlightAware (Why Join?)
  • Login
  • US Flag 
07:49AM EST


 

Airport Tracker/Info


-or-


 

Live Flight TrackerFlight Track Log ✈ SWA1821 ✈ 14-Jul-2013 ✈ KBNA - KBWI

Flight Track Log - Related Links

Times and Time Zones

All times are in EDT time to prevent confusion due to time zone crossing. See the SWA1821 flight status page for this flight to view local times or setup timezone preferences in your user account.

Time Position Orientation Groundspeed Altitude Reporting Facility
EDT Latitude Longitude Course Direction KTS MPH feet Rate Location/Type
09:43AM 36.1333 -86.6500 39° Northeast 153 176 1,300  Level Nashville TRACON
09:44AM 36.1667 -86.6167 39° Northeast 180 207 2,400 1,500 Climbing Nashville TRACON
09:45AM 36.1833 -86.5667 68° East 230 265 3,900 1,560 Climbing Nashville TRACON
09:46AM 36.2000 -86.4833 76° East 256 295 5,600 2,700 Climbing Nashville TRACON
09:47AM 36.1917 -86.4144 99° East 267 307 8,500 3,540 Climbing Memphis Center
09:48AM 36.1928 -86.3194 89° East 275 316 11,700 2,640 Climbing Memphis Center
09:49AM 36.1975 -86.2058 87° East 305 351 13,800 2,640 Climbing Memphis Center
09:50AM 36.2036 -86.0822 86° East 346 398 17,000 2,940 Climbing Memphis Center
09:51AM 36.2475 -85.9617 66° East 363 418 19,700 2,340 Climbing Memphis Center
09:52AM 36.2956 -85.8533 61° Northeast 384 442 21,700 2,220 Climbing Memphis Center
09:53AM 36.3747 -85.6900 59° Northeast 415 478 24,700 2,100 Climbing Indianapolis Center
09:54AM 36.4347 -85.5606 60° Northeast 428 493 26,500 1,560 Climbing Indianapolis Center
09:55AM 36.4981 -85.4267 59° Northeast 444 511 28,000 1,500 Climbing Indianapolis Center
09:56AM 36.5633 -85.2889 59° Northeast 457 526 29,700 1,680 Climbing Indianapolis Center
09:57AM 36.6244 -85.1503 61° Northeast 458 527 31,500 1,800 Climbing Indianapolis Center
09:58AM 36.6689 -85.0044 69° East 450 518 33,400 1,800 Climbing Indianapolis Center
09:59AM 36.7133 -84.8594 69° East 446 513 35,300 1,920 Climbing Indianapolis Center
10:00AM 36.7647 -84.6894 69° East 435 501 37,400 1,680 Climbing Indianapolis Center
10:01AM 36.8061 -84.5511 69° East 425 489 38,800 720 Climbing Indianapolis Center
10:02AM 36.8500 -84.4089 69° East 430 495 39,000 60 Climbing Indianapolis Center
10:03AM 36.8917 -84.2681 70° East 434 499 39,000  Level Indianapolis Center
10:04AM 36.9344 -84.1275 69° East 433 498 39,000  Level Indianapolis Center
10:05AM 36.9758 -83.9878 70° East 427 491 39,000  Level Indianapolis Center
10:06AM 37.0178 -83.8475 69° East 428 493 39,000  Level Indianapolis Center
10:07AM 37.0678 -83.6828 69° East 431 496 39,000  Level Indianapolis Center
10:08AM 37.1103 -83.5433 69° East 429 494 39,000  Level Indianapolis Center
10:09AM 37.1528 -83.4022 69° East 432 497 39,000  Level Indianapolis Center
10:10AM 37.1958 -83.2600 69° East 434 499 39,000  Level Indianapolis Center
10:11AM 37.2381 -83.1164 70° East 435 501 39,000  Level Indianapolis Center
10:12AM 37.2800 -82.9731 70° East 433 498 39,000  Level Indianapolis Center
10:13AM 37.3222 -82.8297 70° East 434 499 39,000  Level Indianapolis Center
10:14AM 37.3697 -82.6639 70° East 430 495 39,000  Level Indianapolis Center
10:16AM 37.4111 -82.5222 70° East 429 494 39,000  Level Indianapolis Center
10:17AM 37.4514 -82.3819 70° East 427 491 39,000  Level Indianapolis Center
10:18AM 37.4922 -82.2414 70° East 427 491 39,000  Level Indianapolis Center
10:19AM 37.5317 -82.1000 71° East 427 491 39,000  Level Indianapolis Center
10:20AM 37.5725 -81.9589 70° East 428 493 39,000  Level Indianapolis Center
10:21AM 37.6131 -81.8161 70° East 431 496 39,000  Level Indianapolis Center
10:22AM 37.6589 -81.6486 71° East 433 498 39,000  Level Indianapolis Center
10:23AM 37.6972 -81.5058 71° East 431 496 39,000  Level Indianapolis Center
10:24AM 37.7322 -81.3817 70° East 430 495 39,000  Level Indianapolis Center
10:25AM 37.7794 -81.2153 70° East 430 495 39,000  Level Indianapolis Center
10:26AM 37.8169 -81.0761 71° East 430 495 39,000  Level Indianapolis Center
10:27AM 37.8600 -80.9175 71° East 428 493 39,000  Level Indianapolis Center
10:28AM 37.8983 -80.7750 71° East 430 495 39,000  Level Indianapolis Center
10:29AM 37.9361 -80.6319 71° East 428 493 39,000  Level Indianapolis Center
10:30AM 37.9736 -80.4900 71° East 429 494 39,000  Level Indianapolis Center
10:31AM 38.0108 -80.3547 71° East 424 488 39,000 -360 Level Indianapolis Center
10:32AM 38.0567 -80.1864 71° East 430 495 38,300 -840 Descending Indianapolis Center
10:33AM 38.0931 -80.0447 72° East 431 496 37,400 -900 Descending Indianapolis Center
10:34AM 38.1331 -79.9081 70° East 423 487 36,500 -900 Descending Washington Center
10:35AM 38.1717 -79.7622 71° East 428 493 35,600 -1,020 Descending Washington Center
10:36AM 38.2100 -79.6139 72° East 438 504 34,600 -1,020 Descending Washington Center
10:37AM 38.2461 -79.4678 72° East 438 504 33,600 -1,140 Descending Washington Center
10:38AM 38.2889 -79.3058 71° East 438 504 32,400 -1,380 Descending Washington Center
10:39AM 38.3244 -79.1647 72° East 428 493 30,900 -1,740 Descending Washington Center
10:40AM 38.3597 -79.0261 72° East 415 478 29,000 -1,980 Descending Washington Center
10:41AM 38.3928 -78.8950 72° East 404 465 27,100 -1,020 Descending Washington Center
10:42AM 38.4211 -78.7639 75° East 388 447 27,000 -60 Descending Washington Center
10:43AM 38.4539 -78.6300 73° East 383 441 27,000  Level Washington Center
10:44AM 38.4886 -78.4908 72° East 395 455 27,000 -120 Level Washington Center
10:45AM 38.5208 -78.3569 73° East 395 455 26,800 -1,200 Descending Washington Center
10:46AM 38.5531 -78.2225 73° East 395 455 24,700 -2,220 Descending Washington Center
10:47AM 38.5853 -78.0908 73° East 395 455 22,500 -2,160 Descending Washington Center
10:48AM 38.6169 -77.9564 73° East 390 449 20,400 -1,740 Descending Washington Center
10:49AM 38.6425 -77.8217 76° East 390 449 19,000 -720 Descending Washington Center
10:50AM 38.6511 -77.6917 85° East 384 442 19,000 -240 Level Washington Center
10:51AM 38.6575 -77.5589 86° East 378 435 18,600 -1,020 Descending Washington Center
10:52AM 38.6656 -77.4450 85° East 367 422 17,000 -1,260 Descending Washington Center
10:53AM 38.6833 -77.3000 81° East 354 407 16,000 -1,560 Descending Potomac TRACON
10:55AM 38.6833 -77.0500 90° East 337 388 12,300 -1,680 Descending Potomac TRACON
10:56AM 38.7000 -76.9333 80° East 325 374 11,000 -1,200 Descending Potomac TRACON
10:57AM 38.7000 -76.8333 90° East 309 356 10,100 -1,080 Descending Potomac TRACON
10:58AM 38.7167 -76.7333 78° East 284 327 9,000 -1,140 Descending Potomac TRACON
10:59AM 38.7500 -76.6500 63° Northeast 280 322 7,900 -1,260 Descending Potomac TRACON
11:00AM 38.7833 -76.5667 63° Northeast 279 321 6,500 -1,380 Descending Potomac TRACON
11:01AM 38.8500 -76.5000 38° Northeast 282 325 5,200 -1,200 Descending Potomac TRACON
11:02AM 38.9167 -76.4667 21° North 284 327 4,300 -720 Descending Potomac TRACON
11:03AM 38.9833 -76.4333 21° North 278 320 3,900 -720 Descending Potomac TRACON
11:04AM 39.0667 -76.4167 North 279 321 2,900 -960 Descending Potomac TRACON
11:05AM 39.1333 -76.4333 349° North 272 313 2,000 -480 Descending Potomac TRACON
11:06AM 39.1500 -76.5000 288° West 214 246 2,000 -240 Level Potomac TRACON
11:07AM 39.1667 -76.5667 288° West 159 183 1,600 -600 Descending Potomac TRACON
11:08AM 39.1667 -76.6167 270° West 141 162 800 -840 Descending Potomac TRACON
11:10AM 39.1667 -76.6667 326° Northwest  Level FlightAware Approximate
11:17AM 39.1754 -76.6683 326° Northwest  Level Estimated
11:18AM 39.1754 -76.6683 326° Northwest  Level Estimated
11:19AM 39.1754 -76.6683 326° Northwest  Level Estimated
11:20AM 39.1754 -76.6683 326° Northwest  Level Estimated